createdAt,value
2023-01-25T00:01:54.826Z,5.88
2023-01-25T00:04:58.223Z,5.53
2023-01-25T00:08:04.353Z,6.53
2023-01-25T00:11:07.411Z,5.87
2023-01-25T00:14:13.912Z,5.85
2023-01-25T00:17:16.577Z,5.35
2023-01-25T00:20:19.791Z,5.65
2023-01-25T00:23:22.596Z,5.88
2023-01-25T00:26:25.491Z,6.07
2023-01-25T00:29:28.387Z,6.25
2023-01-25T00:32:53.353Z,6.00
2023-01-25T00:35:57.225Z,5.38
2023-01-25T00:39:00.388Z,6.05
2023-01-25T00:42:03.159Z,5.07
2023-01-25T00:45:10.801Z,6.05
2023-01-25T00:48:13.594Z,6.28
2023-01-25T00:51:16.433Z,5.40
2023-01-25T00:54:20.479Z,5.97
2023-01-25T00:57:23.417Z,5.70
2023-01-25T01:00:29.580Z,5.93
2023-01-25T01:03:33.749Z,5.97
2023-01-25T01:06:38.459Z,5.32
2023-01-25T01:09:41.968Z,6.28
2023-01-25T01:12:44.663Z,5.53
2023-01-25T01:15:47.585Z,5.18
2023-01-25T01:18:51.216Z,5.75
2023-01-25T01:21:54.208Z,5.88
2023-01-25T01:24:58.108Z,5.97
2023-01-25T01:28:00.942Z,6.10
2023-01-25T01:31:08.357Z,5.95
2023-01-25T01:34:17.195Z,5.97
2023-01-25T01:37:20.065Z,5.72
2023-01-25T01:40:25.688Z,5.68
2023-01-25T01:43:28.526Z,5.90
2023-01-25T01:46:46.305Z,5.65
2023-01-25T01:49:55.678Z,6.50
2023-01-25T01:52:58.627Z,6.28
2023-01-25T01:56:05.053Z,5.68
2023-01-25T01:59:09.604Z,6.27
2023-01-25T02:02:13.762Z,5.70
2023-01-25T02:05:31.607Z,5.53
2023-01-25T02:08:36.916Z,5.80
2023-01-25T02:11:40.468Z,6.47
2023-01-25T02:14:50.480Z,6.33
2023-01-25T02:17:54.721Z,5.43
2023-01-25T02:21:00.193Z,6.07
2023-01-25T02:24:14.246Z,5.75
2023-01-25T02:27:21.168Z,5.88
2023-01-25T02:30:25.802Z,5.50
2023-01-25T02:33:28.872Z,6.07
2023-01-25T02:36:34.406Z,6.25
2023-01-25T02:39:38.106Z,6.10
2023-01-25T02:42:45.456Z,5.88
2023-01-25T02:45:56.916Z,5.67
2023-01-25T02:49:01.312Z,5.88
2023-01-25T02:52:08.746Z,5.95
2023-01-25T02:55:12.141Z,5.53
2023-01-25T02:58:17.944Z,6.80
2023-01-25T03:01:21.900Z,5.47
2023-01-25T03:04:24.925Z,5.50
2023-01-25T03:07:40.300Z,5.80
2023-01-25T03:10:46.299Z,5.60
2023-01-25T03:13:49.476Z,5.70
2023-01-25T03:16:53.946Z,5.30
2023-01-25T03:19:59.520Z,5.95
2023-01-25T03:23:02.478Z,6.28
2023-01-25T03:26:20.125Z,5.43
2023-01-25T03:29:42.002Z,5.63
2023-01-25T03:32:50.890Z,5.80
2023-01-25T03:36:04.414Z,5.93
2023-01-25T03:39:07.758Z,5.65
2023-01-25T03:42:15.754Z,5.53
2023-01-25T03:45:20.037Z,5.57
2023-01-25T03:48:23.799Z,6.10
2023-01-25T03:51:26.592Z,5.88
2023-01-25T03:54:29.609Z,5.85
2023-01-25T03:57:33.184Z,5.85
2023-01-25T04:00:40.753Z,6.20
2023-01-25T04:03:43.549Z,5.40
2023-01-25T04:06:50.064Z,5.75
2023-01-25T04:09:53.788Z,6.20
2023-01-25T04:12:56.800Z,5.65
2023-01-25T04:15:59.829Z,6.00
2023-01-25T04:19:27.207Z,6.13
2023-01-25T04:22:34.019Z,5.88
2023-01-25T04:25:38.944Z,5.57
2023-01-25T04:28:50.394Z,5.82
2023-01-25T04:31:54.109Z,5.22
2023-01-25T04:34:58.424Z,5.90
2023-01-25T04:38:04.652Z,5.00
2023-01-25T04:41:17.326Z,5.93
2023-01-25T04:44:20.967Z,6.07
2023-01-25T04:47:26.819Z,5.70
2023-01-25T04:50:30.860Z,5.17
2023-01-25T04:53:37.951Z,4.90
2023-01-25T04:56:44.223Z,5.40
2023-01-25T04:59:47.057Z,5.82
2023-01-25T05:02:50.265Z,6.25
2023-01-25T05:05:54.669Z,5.60
2023-01-25T05:09:01.219Z,5.45
2023-01-25T05:12:05.905Z,5.53
2023-01-25T05:15:18.242Z,5.28
2023-01-25T05:18:21.049Z,5.43
2023-01-25T05:21:45.022Z,5.93
2023-01-25T05:24:54.032Z,4.93
2023-01-25T05:27:59.801Z,5.38
2023-01-25T05:31:25.616Z,5.90
2023-01-25T05:34:28.612Z,5.45
2023-01-25T05:37:31.408Z,6.17
2023-01-25T05:40:39.903Z,5.95
2023-01-25T05:43:43.462Z,5.70
2023-01-25T05:46:46.753Z,5.60
2023-01-25T05:49:50.749Z,5.93
2023-01-25T05:53:00.686Z,5.53
2023-01-25T05:56:08.519Z,5.38
2023-01-25T05:59:12.603Z,5.50
2023-01-25T06:02:16.267Z,5.47
2023-01-25T06:05:20.038Z,5.60
2023-01-25T06:08:23.186Z,6.17
2023-01-25T06:11:28.019Z,6.07
2023-01-25T06:14:31.446Z,5.85
2023-01-25T06:17:34.329Z,5.90
2023-01-25T06:20:47.253Z,5.95
2023-01-25T06:23:50.064Z,5.67
2023-01-25T06:26:56.479Z,5.40
2023-01-25T06:29:59.963Z,6.13
2023-01-25T06:33:15.615Z,5.53
2023-01-25T06:36:23.259Z,5.65
2023-01-25T06:39:26.129Z,6.07
2023-01-25T06:42:36.186Z,5.88
2023-01-25T06:45:38.979Z,5.10
2023-01-25T06:48:44.782Z,5.40
2023-01-25T06:51:48.260Z,5.28
2023-01-25T06:54:51.182Z,5.27
2023-01-25T06:57:54.080Z,5.72
2023-01-25T07:01:05.481Z,5.40
2023-01-25T07:04:14.725Z,5.53
2023-01-25T07:07:18.803Z,5.47
2023-01-25T07:10:22.280Z,5.87
2023-01-25T07:13:26.273Z,5.13
2023-01-25T07:16:29.396Z,5.38
2023-01-25T07:19:32.275Z,5.57
2023-01-25T07:22:37.934Z,5.47
2023-01-25T07:25:47.883Z,5.07
2023-01-25T07:28:54.858Z,5.57
2023-01-25T07:31:58.091Z,5.85
2023-01-25T07:35:07.358Z,5.60
2023-01-25T07:38:10.223Z,6.00
2023-01-25T07:41:13.516Z,6.10
2023-01-25T07:44:16.537Z,5.97
2023-01-25T07:47:22.783Z,5.78
2023-01-25T07:50:27.772Z,5.53
2023-01-25T07:53:33.444Z,5.60
2023-01-25T07:56:38.781Z,5.50
2023-01-25T07:59:41.646Z,6.15
2023-01-25T08:02:44.531Z,5.22
2023-01-25T08:05:47.413Z,5.70
2023-01-25T08:08:50.195Z,6.75
2023-01-25T08:11:53.780Z,5.77
2023-01-25T08:14:56.503Z,5.93
2023-01-25T08:18:02.474Z,5.90
2023-01-25T08:21:05.601Z,6.10
2023-01-25T08:24:09.674Z,5.72
2023-01-25T08:27:12.398Z,5.97
2023-01-25T08:30:15.812Z,5.10
2023-01-25T08:33:18.667Z,6.28
2023-01-25T08:36:24.440Z,5.95
2023-01-25T08:39:31.665Z,6.53
2023-01-25T08:42:38.147Z,5.87
2023-01-25T08:45:40.943Z,6.28
2023-01-25T08:48:43.903Z,6.35
2023-01-25T08:51:48.343Z,6.47
2023-01-25T08:54:51.152Z,6.68
2023-01-25T08:57:55.783Z,6.97
2023-01-25T09:01:04.848Z,6.55
2023-01-25T09:04:07.729Z,6.95
2023-01-25T09:07:10.600Z,6.70
2023-01-25T09:10:15.027Z,7.13
2023-01-25T09:13:19.926Z,6.47
2023-01-25T09:16:30.985Z,6.43
2023-01-25T09:19:33.714Z,7.43
2023-01-25T09:22:36.688Z,6.45
2023-01-25T09:25:43.217Z,6.85
2023-01-25T09:28:50.978Z,7.03
2023-01-25T09:31:54.293Z,7.07
2023-01-25T09:35:08.048Z,6.88
2023-01-25T09:38:10.867Z,7.35
2023-01-25T09:41:46.529Z,6.93
2023-01-25T09:45:07.337Z,6.13
2023-01-25T09:48:21.245Z,6.60
2023-01-25T09:51:40.333Z,6.80
2023-01-25T09:54:47.453Z,7.07
2023-01-25T09:57:54.310Z,6.60
2023-01-25T10:01:38.177Z,6.67
2023-01-25T10:04:45.999Z,7.78
2023-01-25T10:07:51.746Z,8.43
2023-01-25T10:11:02.342Z,6.95
2023-01-25T10:14:14.455Z,7.82
2023-01-25T10:17:41.618Z,7.30
2023-01-25T10:20:57.428Z,7.28
2023-01-25T10:24:06.927Z,7.53
2023-01-25T10:27:28.502Z,7.25
2023-01-25T10:30:49.359Z,7.70
2023-01-25T10:33:58.265Z,7.63
2023-01-25T10:37:05.541Z,7.93
2023-01-25T10:40:21.857Z,7.93
2023-01-25T10:43:25.886Z,6.82
2023-01-25T10:46:29.161Z,7.68
2023-01-25T10:49:45.370Z,8.37
2023-01-25T10:52:59.481Z,7.68
2023-01-25T10:56:05.824Z,8.13
2023-01-25T10:59:23.307Z,8.30
2023-01-25T11:02:45.081Z,7.40
2023-01-25T11:05:56.276Z,7.73
2023-01-25T11:08:59.373Z,7.93
2023-01-25T11:12:07.542Z,7.07
2023-01-25T11:15:41.617Z,7.13
2023-01-25T11:18:56.311Z,7.50
2023-01-25T11:22:24.487Z,7.73
2023-01-25T11:25:34.718Z,7.35
2023-01-25T11:28:47.587Z,7.85
2023-01-25T11:31:56.877Z,6.78
2023-01-25T11:35:00.090Z,7.50
2023-01-25T11:38:14.564Z,8.03
2023-01-25T11:41:24.186Z,8.07
2023-01-25T11:44:38.712Z,7.97
2023-01-25T11:48:03.187Z,7.50
2023-01-25T11:51:14.210Z,7.95
2023-01-25T11:54:48.934Z,7.47
2023-01-25T11:58:13.002Z,7.85
2023-01-25T12:01:38.665Z,7.53
2023-01-25T12:04:50.267Z,7.68
2023-01-25T12:08:25.321Z,7.85
2023-01-25T12:11:57.069Z,7.03
2023-01-25T12:15:27.495Z,8.55
2023-01-25T12:18:39.604Z,8.02
2023-01-25T12:22:00.514Z,7.47
2023-01-25T12:25:28.533Z,8.23
2023-01-25T12:28:45.017Z,7.00
2023-01-25T12:32:14.039Z,8.02
2023-01-25T12:35:38.234Z,7.50
2023-01-25T12:38:59.671Z,8.25
2023-01-25T12:42:17.293Z,7.25
2023-01-25T12:45:25.264Z,7.30
2023-01-25T12:48:36.831Z,8.68
2023-01-25T12:51:42.717Z,9.55
2023-01-25T12:54:49.165Z,9.45
2023-01-25T12:58:42.185Z,9.75
2023-01-25T13:01:52.876Z,9.87
2023-01-25T13:05:37.680Z,9.30
2023-01-25T13:08:40.663Z,9.43
2023-01-25T13:11:46.037Z,9.75
2023-01-25T13:14:48.918Z,10.35
2023-01-25T13:17:51.759Z,9.53
2023-01-25T13:20:57.607Z,10.50
2023-01-25T13:24:14.023Z,10.25
2023-01-25T13:27:26.058Z,10.48
2023-01-25T13:30:34.715Z,10.35
2023-01-25T13:33:38.134Z,10.10
2023-01-25T13:36:41.355Z,10.32
2023-01-25T13:39:47.809Z,11.20
2023-01-25T13:43:04.006Z,10.68
2023-01-25T13:46:17.491Z,11.02
2023-01-25T13:49:27.352Z,10.03
2023-01-25T13:52:33.144Z,10.55
2023-01-25T13:55:46.666Z,10.45
2023-01-25T13:58:49.565Z,9.52
2023-01-25T14:01:52.949Z,9.25
2023-01-25T14:04:57.051Z,9.67
2023-01-25T14:08:00.000Z,9.82
2023-01-25T14:11:03.557Z,8.98
2023-01-25T14:14:34.066Z,9.13
2023-01-25T14:17:36.889Z,9.23
2023-01-25T14:20:41.934Z,9.53
2023-01-25T14:23:45.298Z,8.98
2023-01-25T14:26:48.211Z,9.45
2023-01-25T14:29:51.281Z,8.93
2023-01-25T14:32:59.886Z,8.82
2023-01-25T14:36:22.899Z,8.73
2023-01-25T14:39:30.247Z,8.30
2023-01-25T14:42:33.283Z,8.95
2023-01-25T14:45:36.145Z,8.57
2023-01-25T14:48:41.622Z,9.23
2023-01-25T14:51:49.713Z,9.60
2023-01-25T14:54:56.209Z,8.65
2023-01-25T14:58:02.413Z,10.13
2023-01-25T15:01:09.728Z,9.13
2023-01-25T15:04:13.624Z,8.70
2023-01-25T15:07:38.867Z,9.13
2023-01-25T15:10:54.365Z,9.00
2023-01-25T15:14:07.618Z,8.82
2023-01-25T15:17:43.764Z,8.60
2023-01-25T15:20:49.779Z,9.07
2023-01-25T15:23:54.455Z,8.83
2023-01-25T15:26:57.264Z,9.48
2023-01-25T15:30:00.664Z,8.63
2023-01-25T15:33:03.750Z,8.27
2023-01-25T15:36:06.951Z,9.52
2023-01-25T15:39:18.476Z,9.10
2023-01-25T15:42:21.282Z,9.23
2023-01-25T15:45:24.275Z,9.00
2023-01-25T15:48:36.225Z,9.07
2023-01-25T15:51:39.380Z,7.80
2023-01-25T15:54:48.582Z,8.47
2023-01-25T15:57:58.076Z,8.57
2023-01-25T16:01:02.185Z,9.77
2023-01-25T16:04:05.582Z,8.68
2023-01-25T16:07:23.379Z,8.38
2023-01-25T16:10:28.400Z,8.43
2023-01-25T16:13:31.399Z,8.80
2023-01-25T16:16:39.476Z,8.13
2023-01-25T16:19:42.957Z,8.70
2023-01-25T16:22:48.045Z,8.00
2023-01-25T16:25:51.209Z,7.77
2023-01-25T16:28:54.970Z,8.40
2023-01-25T16:31:58.312Z,8.35
2023-01-25T16:35:02.321Z,8.93
2023-01-25T16:38:06.452Z,8.13
2023-01-25T16:41:15.219Z,7.70
2023-01-25T16:44:20.751Z,8.13
2023-01-25T16:47:25.161Z,8.18
2023-01-25T16:50:36.683Z,8.15
2023-01-25T16:53:40.664Z,7.95
2023-01-25T16:56:44.759Z,8.47
2023-01-25T16:59:49.318Z,8.05
2023-01-25T17:02:59.092Z,7.88
2023-01-25T17:06:03.966Z,8.05
2023-01-25T17:09:22.150Z,8.38
2023-01-25T17:12:29.597Z,7.30
2023-01-25T17:15:34.297Z,8.23
2023-01-25T17:18:39.118Z,8.23
2023-01-25T17:21:46.819Z,8.82
2023-01-25T17:24:53.083Z,8.40
2023-01-25T17:28:00.112Z,7.90
2023-01-25T17:31:28.964Z,7.10
2023-01-25T17:34:32.497Z,8.20
2023-01-25T17:37:42.086Z,7.50
2023-01-25T17:40:47.720Z,7.90
2023-01-25T17:43:53.697Z,7.73
2023-01-25T17:46:57.652Z,8.25
2023-01-25T17:50:09.336Z,8.30
2023-01-25T17:53:15.711Z,7.75
2023-01-25T17:56:21.169Z,8.20
2023-01-25T17:59:30.396Z,7.67
2023-01-25T18:02:34.984Z,8.23
2023-01-25T18:05:40.304Z,8.18
2023-01-25T18:08:50.701Z,7.95
2023-01-25T18:11:55.489Z,8.38
2023-01-25T18:15:01.133Z,8.27
2023-01-25T18:18:07.848Z,8.88
2023-01-25T18:21:17.228Z,8.25
2023-01-25T18:24:27.790Z,8.80
2023-01-25T18:27:32.483Z,8.48
2023-01-25T18:30:52.956Z,9.13
2023-01-25T18:33:58.921Z,8.38
2023-01-25T18:37:03.192Z,8.93
2023-01-25T18:40:10.588Z,8.55
2023-01-25T18:43:20.776Z,9.32
2023-01-25T18:46:25.441Z,9.50
2023-01-25T18:49:29.857Z,8.90
2023-01-25T18:52:39.270Z,8.95
2023-01-25T18:56:03.361Z,8.70
2023-01-25T18:59:12.008Z,9.05
2023-01-25T19:02:18.154Z,8.53
2023-01-25T19:05:23.195Z,9.43
2023-01-25T19:08:30.032Z,8.80
2023-01-25T19:11:36.821Z,9.48
2023-01-25T19:14:43.114Z,8.82
2023-01-25T19:17:47.603Z,8.77
2023-01-25T19:20:53.366Z,8.95
2023-01-25T19:23:59.254Z,9.48
2023-01-25T19:27:04.271Z,8.68
2023-01-25T19:30:10.225Z,9.02
2023-01-25T19:33:17.974Z,8.77
2023-01-25T19:36:22.809Z,9.23
2023-01-25T19:39:28.034Z,8.60
2023-01-25T19:42:34.199Z,8.77
2023-01-25T19:45:39.551Z,8.48
2023-01-25T19:48:47.141Z,8.73
2023-01-25T19:51:56.009Z,9.15
2023-01-25T19:55:00.951Z,9.52
2023-01-25T19:58:09.555Z,8.93
2023-01-25T20:01:17.249Z,9.52
2023-01-25T20:04:23.419Z,8.57
2023-01-25T20:07:29.271Z,9.13
2023-01-25T20:10:35.821Z,9.82
2023-01-25T20:13:41.143Z,9.73
2023-01-25T20:16:47.727Z,9.45
2023-01-25T20:19:53.207Z,9.07
2023-01-25T20:22:57.882Z,8.93
2023-01-25T20:26:11.649Z,9.52
2023-01-25T20:29:16.501Z,8.98
2023-01-25T20:32:32.433Z,9.13
2023-01-25T20:35:39.347Z,7.87
2023-01-25T20:38:44.674Z,8.63
2023-01-25T20:41:58.867Z,9.45
2023-01-25T20:45:09.081Z,9.80
2023-01-25T20:48:17.990Z,10.05
2023-01-25T20:51:23.250Z,8.80
2023-01-25T20:54:31.543Z,8.80
2023-01-25T20:57:38.316Z,9.25
2023-01-25T21:00:46.054Z,9.52
2023-01-25T21:03:55.082Z,8.70
2023-01-25T21:07:07.467Z,9.17
2023-01-25T21:10:21.622Z,8.73
2023-01-25T21:13:27.660Z,8.98
2023-01-25T21:16:34.129Z,9.02
2023-01-25T21:19:40.667Z,9.18
2023-01-25T21:22:45.066Z,8.93
2023-01-25T21:25:52.405Z,8.73
2023-01-25T21:28:58.497Z,8.68
2023-01-25T21:32:02.894Z,8.90
2023-01-25T21:35:07.325Z,9.25
2023-01-25T21:38:12.162Z,8.77
2023-01-25T21:41:22.392Z,8.57
2023-01-25T21:44:44.540Z,8.02
2023-01-25T21:47:48.645Z,9.00
2023-01-25T21:51:14.854Z,8.40
2023-01-25T21:54:32.909Z,8.63
2023-01-25T21:57:36.098Z,8.98
2023-01-25T22:00:41.110Z,9.70
2023-01-25T22:03:48.006Z,7.82
2023-01-25T22:06:54.873Z,7.88
2023-01-25T22:09:57.769Z,8.17
2023-01-25T22:13:00.760Z,8.60
2023-01-25T22:16:04.912Z,8.48
2023-01-25T22:19:08.193Z,7.82
2023-01-25T22:22:11.208Z,8.60
2023-01-25T22:25:14.117Z,8.27
2023-01-25T22:28:19.806Z,8.70
2023-01-25T22:31:41.674Z,8.02
2023-01-25T22:34:44.434Z,7.88
2023-01-25T22:37:52.590Z,8.50
2023-01-25T22:40:56.536Z,8.10
2023-01-25T22:43:59.366Z,8.27
2023-01-25T22:47:20.676Z,8.07
2023-01-25T22:50:27.642Z,7.95
2023-01-25T22:53:30.648Z,8.50
2023-01-25T22:56:34.497Z,7.80
2023-01-25T22:59:37.974Z,7.03
2023-01-25T23:02:41.420Z,8.02
2023-01-25T23:05:44.122Z,8.45
2023-01-25T23:08:47.771Z,7.72
2023-01-25T23:11:50.545Z,7.20
2023-01-25T23:14:54.411Z,7.57
2023-01-25T23:18:16.113Z,7.97
2023-01-25T23:21:21.653Z,7.70
2023-01-25T23:24:26.779Z,7.53
2023-01-25T23:27:29.714Z,8.00
2023-01-25T23:30:32.592Z,7.32
2023-01-25T23:33:35.426Z,7.75
2023-01-25T23:36:42.496Z,7.43
2023-01-25T23:39:45.614Z,7.90
2023-01-25T23:42:49.066Z,7.73
2023-01-25T23:45:55.141Z,7.47
2023-01-25T23:48:57.901Z,7.45
2023-01-25T23:52:01.112Z,7.38
2023-01-25T23:55:04.427Z,7.68
2023-01-25T23:58:07.146Z,7.00
